createdAt,value
2022-12-18T00:00:06.941Z,25.30
2022-12-18T00:03:01.598Z,25.88
2022-12-18T00:05:29.398Z,25.70
2022-12-18T00:07:57.224Z,26.15
2022-12-18T00:10:24.809Z,25.00
2022-12-18T00:12:52.744Z,24.00
2022-12-18T00:15:20.861Z,25.15
2022-12-18T00:17:48.770Z,24.60
2022-12-18T00:20:16.470Z,23.98
2022-12-18T00:22:44.328Z,21.05
2022-12-18T00:25:11.823Z,21.73
2022-12-18T00:27:39.791Z,21.50
2022-12-18T00:30:08.074Z,22.33
2022-12-18T00:32:35.987Z,23.30
2022-12-18T00:35:03.928Z,21.13
2022-12-18T00:37:34.507Z,20.25
2022-12-18T00:40:02.497Z,20.40
2022-12-18T00:42:49.101Z,22.15
2022-12-18T00:45:16.870Z,19.27
2022-12-18T00:47:44.726Z,20.60
2022-12-18T00:50:12.456Z,20.63
2022-12-18T00:52:41.667Z,21.23
2022-12-18T00:55:09.696Z,23.15
2022-12-18T00:57:37.755Z,21.70
2022-12-18T01:00:08.191Z,20.27
2022-12-18T01:02:36.836Z,19.70
2022-12-18T01:05:05.422Z,20.50
2022-12-18T01:07:33.540Z,21.42
2022-12-18T01:10:01.141Z,21.73
2022-12-18T01:12:29.222Z,22.05
2022-12-18T01:14:56.801Z,21.67
2022-12-18T01:17:25.067Z,22.50
2022-12-18T01:19:52.619Z,20.55
2022-12-18T01:22:20.522Z,19.73
2022-12-18T01:24:48.237Z,20.88
2022-12-18T01:27:16.620Z,21.27
2022-12-18T01:29:44.337Z,21.70
2022-12-18T01:32:12.316Z,19.52
2022-12-18T01:34:40.011Z,20.15
2022-12-18T01:37:07.984Z,20.27
2022-12-18T01:39:35.702Z,20.70
2022-12-18T01:42:15.755Z,20.58
2022-12-18T01:45:28.562Z,21.02
2022-12-18T01:48:08.385Z,21.38
2022-12-18T01:50:43.863Z,19.73
2022-12-18T01:53:22.034Z,22.10
2022-12-18T01:55:56.573Z,21.98
2022-12-18T01:58:56.374Z,19.17
2022-12-18T02:01:25.821Z,20.95
2022-12-18T02:03:54.226Z,19.73
2022-12-18T02:06:40.879Z,20.13
2022-12-18T02:09:28.026Z,20.27
2022-12-18T02:12:22.061Z,20.00
2022-12-18T02:15:19.897Z,21.02
2022-12-18T02:17:57.648Z,21.30
2022-12-18T02:20:31.927Z,17.83
2022-12-18T02:23:19.920Z,19.77
2022-12-18T02:26:21.359Z,21.27
2022-12-18T02:29:23.784Z,20.25
2022-12-18T02:31:55.966Z,19.83
2022-12-18T02:34:30.276Z,19.40
2022-12-18T02:37:03.512Z,21.90
2022-12-18T02:39:34.104Z,20.65
2022-12-18T02:42:09.017Z,23.05
2022-12-18T02:44:46.354Z,20.00
2022-12-18T02:47:21.513Z,21.58
2022-12-18T02:50:54.181Z,20.65
2022-12-18T02:53:37.540Z,22.98
2022-12-18T02:56:13.582Z,19.88
2022-12-18T02:59:02.342Z,20.02
2022-12-18T03:02:22.534Z,21.38
2022-12-18T03:05:39.128Z,21.35
2022-12-18T03:08:18.662Z,21.83
2022-12-18T03:11:03.877Z,21.35
2022-12-18T03:13:47.955Z,20.40
2022-12-18T03:16:31.011Z,21.48
2022-12-18T03:19:22.738Z,22.35
2022-12-18T03:21:56.924Z,20.23
2022-12-18T03:24:30.693Z,22.00
2022-12-18T03:27:11.619Z,20.20
2022-12-18T03:30:08.202Z,19.83
2022-12-18T03:32:59.971Z,19.35
2022-12-18T03:35:34.839Z,21.80
2022-12-18T03:38:03.215Z,20.38
2022-12-18T03:40:46.030Z,19.77
2022-12-18T03:43:33.666Z,20.75
2022-12-18T03:46:18.559Z,20.30
2022-12-18T03:48:52.865Z,19.50
2022-12-18T03:52:08.620Z,18.35
2022-12-18T03:54:39.554Z,20.08
2022-12-18T03:57:29.485Z,19.92
2022-12-18T04:00:13.514Z,20.15
2022-12-18T04:02:58.161Z,20.27
2022-12-18T04:05:36.764Z,20.45
2022-12-18T04:08:05.481Z,20.45
2022-12-18T04:10:38.138Z,21.65
2022-12-18T04:13:05.742Z,19.70
2022-12-18T04:15:37.049Z,19.30
2022-12-18T04:18:06.723Z,19.75
2022-12-18T04:20:41.244Z,21.60
2022-12-18T04:23:09.521Z,18.85
2022-12-18T04:25:37.992Z,20.70
2022-12-18T04:28:09.089Z,21.20
2022-12-18T04:30:39.323Z,20.20
2022-12-18T04:33:20.250Z,19.95
2022-12-18T04:35:48.093Z,20.35
2022-12-18T04:38:15.758Z,19.25
2022-12-18T04:40:44.804Z,20.07
2022-12-18T04:43:21.738Z,20.42
2022-12-18T04:45:49.652Z,20.75
2022-12-18T04:48:17.281Z,21.15
2022-12-18T04:50:45.167Z,20.95
2022-12-18T04:53:12.656Z,20.33
2022-12-18T04:55:40.555Z,20.23
2022-12-18T04:58:08.068Z,19.88
2022-12-18T05:03:05.006Z,20.55
2022-12-18T05:05:32.916Z,20.65
2022-12-18T05:08:00.808Z,20.42
2022-12-18T05:10:31.217Z,20.77
2022-12-18T05:13:03.886Z,19.52
2022-12-18T05:15:33.784Z,21.23
2022-12-18T05:20:30.364Z,20.10
2022-12-18T05:22:58.746Z,21.70
2022-12-18T05:25:26.637Z,20.27
2022-12-18T05:27:54.286Z,22.00
2022-12-18T05:30:22.202Z,21.10
2022-12-18T05:32:49.703Z,21.70
2022-12-18T05:35:17.588Z,20.73
2022-12-18T05:37:45.497Z,21.37
2022-12-18T05:40:14.171Z,21.95
2022-12-18T05:42:41.748Z,21.55
2022-12-18T05:45:10.223Z,22.20
2022-12-18T05:47:37.877Z,22.60
2022-12-18T05:50:06.653Z,22.00
2022-12-18T05:52:34.089Z,20.15
2022-12-18T05:55:02.252Z,20.80
2022-12-18T05:57:30.091Z,22.48
2022-12-18T05:59:57.888Z,22.63
2022-12-18T06:02:25.446Z,21.58
2022-12-18T06:04:53.416Z,20.65
2022-12-18T06:07:20.990Z,22.02
2022-12-18T06:09:48.898Z,23.05
2022-12-18T06:12:16.767Z,22.02
2022-12-18T06:14:44.861Z,23.58
2022-12-18T06:17:12.402Z,22.73
2022-12-18T06:19:40.261Z,22.23
2022-12-18T06:22:07.946Z,22.48
2022-12-18T06:24:35.785Z,22.02
2022-12-18T06:27:03.420Z,21.88
2022-12-18T06:29:31.244Z,22.15
2022-12-18T06:31:58.815Z,21.88
2022-12-18T06:34:26.832Z,21.77
2022-12-18T06:36:54.292Z,22.52
2022-12-18T06:39:22.186Z,22.02
2022-12-18T06:41:49.691Z,21.05
2022-12-18T06:44:17.617Z,22.33
2022-12-18T06:46:45.120Z,22.85
2022-12-18T06:49:13.491Z,23.23
2022-12-18T06:51:41.288Z,23.65
2022-12-18T06:54:09.769Z,23.58
2022-12-18T06:56:37.242Z,22.52
2022-12-18T06:59:05.163Z,23.95
2022-12-18T07:01:32.907Z,23.40
2022-12-18T07:04:00.827Z,23.90
2022-12-18T07:06:28.408Z,22.63
2022-12-18T07:08:56.635Z,24.98
2022-12-18T07:11:24.532Z,22.48
2022-12-18T07:13:53.910Z,27.42
2022-12-18T07:16:25.366Z,26.10
2022-12-18T07:18:56.601Z,23.42
2022-12-18T07:21:25.716Z,26.25
2022-12-18T07:23:53.784Z,25.00
2022-12-18T07:26:22.997Z,23.92
2022-12-18T07:31:22.691Z,23.52
2022-12-18T07:33:52.672Z,25.48
2022-12-18T07:36:23.637Z,26.92
2022-12-18T07:38:55.776Z,24.38
2022-12-18T07:41:23.636Z,24.58
2022-12-18T07:43:51.461Z,25.75
2022-12-18T07:46:19.643Z,25.52
2022-12-18T07:48:49.821Z,26.67
2022-12-18T07:51:19.414Z,25.77
2022-12-18T07:53:49.309Z,25.67
2022-12-18T07:56:29.038Z,25.85
2022-12-18T07:58:58.568Z,26.25
2022-12-18T08:01:26.854Z,25.92
2022-12-18T08:03:55.083Z,24.83
2022-12-18T08:06:24.197Z,25.95
2022-12-18T08:08:57.212Z,25.00
2022-12-18T08:11:27.282Z,26.77
2022-12-18T08:13:55.975Z,25.23
2022-12-18T08:16:24.123Z,26.42
2022-12-18T08:18:54.635Z,26.23
2022-12-18T08:21:27.375Z,25.20
2022-12-18T08:24:17.296Z,23.90
2022-12-18T08:27:06.684Z,25.63
2022-12-18T08:29:36.325Z,28.58
2022-12-18T08:32:04.302Z,27.85
2022-12-18T08:34:32.449Z,27.90
2022-12-18T08:37:00.988Z,27.48
2022-12-18T08:39:30.110Z,26.95
2022-12-18T08:42:16.058Z,27.60
2022-12-18T08:44:44.016Z,29.70
2022-12-18T08:47:11.598Z,25.20
2022-12-18T08:49:39.501Z,28.65
2022-12-18T08:52:07.524Z,29.98
2022-12-18T08:54:35.442Z,28.40
2022-12-18T08:57:03.266Z,31.10
2022-12-18T08:59:31.190Z,30.45
2022-12-18T09:01:58.894Z,31.80
2022-12-18T09:04:27.004Z,31.05
2022-12-18T09:06:57.533Z,30.60
2022-12-18T09:09:25.500Z,27.40
2022-12-18T09:11:53.037Z,28.95
2022-12-18T09:14:20.921Z,27.00
2022-12-18T09:16:48.621Z,26.83
2022-12-18T09:19:16.531Z,24.55
2022-12-18T09:21:47.993Z,25.20
2022-12-18T09:24:17.490Z,27.80
2022-12-18T09:26:47.119Z,23.45
2022-12-18T09:29:18.932Z,25.52
2022-12-18T09:31:47.624Z,25.38
2022-12-18T09:34:15.607Z,25.73
2022-12-18T09:36:43.407Z,24.02
2022-12-18T09:39:11.883Z,26.53
2022-12-18T09:41:58.138Z,27.27
2022-12-18T09:44:45.719Z,25.95
2022-12-18T09:47:38.776Z,27.20
2022-12-18T09:50:47.562Z,25.92
2022-12-18T09:53:23.862Z,24.50
2022-12-18T09:55:54.413Z,24.83
2022-12-18T09:58:50.289Z,26.48
2022-12-18T10:01:24.329Z,25.02
2022-12-18T10:03:53.578Z,25.95
2022-12-18T10:06:43.226Z,25.85
2022-12-18T10:12:34.218Z,26.25
2022-12-18T10:15:25.612Z,27.05
2022-12-18T10:18:09.314Z,27.40
2022-12-18T10:20:54.132Z,28.67
2022-12-18T10:24:04.221Z,26.67
2022-12-18T10:26:34.030Z,27.02
2022-12-18T10:29:05.658Z,27.33
2022-12-18T10:31:34.095Z,28.95
2022-12-18T10:34:02.237Z,27.00
2022-12-18T10:36:30.588Z,28.30
2022-12-18T10:39:27.343Z,29.13
2022-12-18T10:42:20.843Z,28.63
2022-12-18T10:45:23.420Z,26.40
2022-12-18T10:47:51.684Z,28.45
2022-12-18T10:51:09.797Z,26.53
2022-12-18T10:53:30.914Z,26.75
2022-12-18T10:56:01.842Z,28.23
2022-12-18T10:58:34.950Z,29.38
2022-12-18T11:01:16.794Z,28.58
2022-12-18T11:04:00.418Z,29.65
2022-12-18T11:06:30.796Z,26.83
2022-12-18T11:09:19.832Z,30.25
2022-12-18T11:12:01.258Z,29.27
2022-12-18T11:14:46.773Z,28.02
2022-12-18T11:17:35.983Z,28.50
2022-12-18T11:20:36.780Z,29.58
2022-12-18T11:23:14.476Z,29.23
2022-12-18T11:25:57.711Z,27.70
2022-12-18T11:29:09.201Z,30.92
2022-12-18T11:31:36.951Z,30.80
2022-12-18T11:34:28.635Z,29.15
2022-12-18T11:37:00.644Z,28.60
2022-12-18T11:39:36.475Z,29.90
2022-12-18T11:42:23.388Z,29.27
2022-12-18T11:45:09.998Z,29.48
2022-12-18T11:47:50.926Z,30.45
2022-12-18T11:50:26.661Z,32.65
2022-12-18T11:52:57.498Z,29.98
2022-12-18T11:55:43.154Z,30.63
2022-12-18T11:58:54.651Z,30.77
2022-12-18T12:02:17.475Z,28.52
2022-12-18T12:05:57.790Z,30.70
2022-12-18T12:08:41.002Z,32.88
2022-12-18T12:12:01.793Z,30.00
2022-12-18T12:14:42.423Z,28.95
2022-12-18T12:17:57.709Z,33.63
2022-12-18T12:20:43.777Z,35.17
2022-12-18T12:23:28.328Z,35.13
2022-12-18T12:26:37.350Z,33.00
2022-12-18T12:29:49.117Z,30.98
2022-12-18T12:33:02.538Z,31.80
2022-12-18T12:36:04.786Z,29.38
2022-12-18T12:38:52.395Z,31.75
2022-12-18T12:41:45.774Z,29.55
2022-12-18T12:44:33.280Z,29.38
2022-12-18T12:47:15.667Z,30.20
2022-12-18T12:49:48.754Z,34.83
2022-12-18T12:52:43.377Z,33.35
2022-12-18T12:55:22.878Z,32.20
2022-12-18T12:58:24.496Z,32.75
2022-12-18T13:01:06.405Z,31.65
2022-12-18T13:03:57.557Z,29.92
2022-12-18T13:06:51.421Z,29.55
2022-12-18T13:09:19.497Z,27.38
2022-12-18T13:12:07.690Z,29.30
2022-12-18T13:14:41.977Z,30.88
2022-12-18T13:17:21.756Z,31.85
2022-12-18T13:22:52.466Z,31.77
2022-12-18T13:25:37.736Z,30.15
2022-12-18T13:28:18.191Z,28.30
2022-12-18T13:30:55.547Z,30.05
2022-12-18T13:33:30.721Z,28.92
2022-12-18T13:36:23.083Z,28.80
2022-12-18T13:39:19.748Z,31.00
2022-12-18T13:42:35.098Z,30.17
2022-12-18T13:45:23.565Z,28.02
2022-12-18T13:47:51.518Z,29.00
2022-12-18T13:53:25.938Z,29.55
2022-12-18T13:55:54.033Z,28.38
2022-12-18T13:58:21.627Z,30.08
2022-12-18T14:00:50.716Z,30.95
2022-12-18T14:03:29.320Z,30.35
2022-12-18T14:06:10.027Z,33.30
2022-12-18T14:08:42.270Z,31.60
2022-12-18T14:11:26.448Z,33.40
2022-12-18T14:13:54.597Z,32.13
2022-12-18T14:16:24.006Z,32.25
2022-12-18T14:19:10.082Z,29.42
2022-12-18T14:21:50.298Z,35.55
2022-12-18T14:24:23.008Z,30.35
2022-12-18T14:26:52.313Z,31.40
2022-12-18T14:29:31.837Z,32.83
2022-12-18T14:32:19.269Z,34.42
2022-12-18T14:34:55.272Z,31.17
2022-12-18T14:37:28.041Z,32.10
2022-12-18T14:40:10.908Z,26.88
2022-12-18T14:42:42.897Z,32.97
2022-12-18T14:45:45.718Z,29.55
2022-12-18T14:48:44.165Z,31.85
2022-12-18T14:51:11.982Z,33.20
2022-12-18T14:54:10.890Z,34.85
2022-12-18T14:56:47.354Z,34.72
2022-12-18T14:59:24.978Z,36.10
2022-12-18T15:02:05.997Z,34.25
2022-12-18T15:04:45.006Z,33.30
2022-12-18T15:07:17.226Z,34.75
2022-12-18T15:10:12.018Z,35.42
2022-12-18T15:12:47.920Z,35.13
2022-12-18T15:15:34.659Z,33.90
2022-12-18T15:18:09.702Z,34.60
2022-12-18T15:20:49.635Z,34.47
2022-12-18T15:23:50.347Z,37.30
2022-12-18T15:26:21.708Z,36.45
2022-12-18T15:28:57.229Z,34.45
2022-12-18T15:31:36.415Z,35.65
2022-12-18T15:34:21.812Z,34.70
2022-12-18T15:36:51.883Z,37.05
2022-12-18T15:39:19.638Z,34.40
2022-12-18T15:42:06.147Z,36.50
2022-12-18T15:44:34.778Z,37.08
2022-12-18T15:47:02.533Z,35.97
2022-12-18T15:49:30.523Z,33.22
2022-12-18T15:52:00.972Z,36.75
2022-12-18T15:54:47.419Z,35.92
2022-12-18T15:57:24.062Z,38.40
2022-12-18T15:59:55.336Z,37.33
2022-12-18T16:02:24.027Z,38.70
2022-12-18T16:04:53.391Z,38.67
2022-12-18T16:07:25.051Z,40.63
2022-12-18T16:09:54.385Z,41.65
2022-12-18T16:12:24.873Z,40.80
2022-12-18T16:14:52.798Z,43.25
2022-12-18T16:17:21.693Z,44.40
2022-12-18T16:19:49.737Z,42.70
2022-12-18T16:22:27.784Z,41.13
2022-12-18T16:24:57.032Z,41.20
2022-12-18T16:27:25.961Z,40.63
2022-12-18T16:29:54.527Z,39.90
2022-12-18T16:32:23.709Z,37.85
2022-12-18T16:34:52.891Z,41.50
2022-12-18T16:37:20.484Z,39.50
2022-12-18T16:39:48.354Z,38.88
2022-12-18T16:42:21.161Z,40.15
2022-12-18T16:44:50.345Z,36.50
2022-12-18T16:47:18.834Z,38.58
2022-12-18T16:49:47.104Z,36.70
2022-12-18T16:52:15.029Z,40.97
2022-12-18T16:54:42.943Z,38.63
2022-12-18T16:57:17.827Z,38.75
2022-12-18T16:59:46.648Z,37.10
2022-12-18T17:02:19.077Z,37.30
2022-12-18T17:04:55.742Z,38.45
2022-12-18T17:07:24.402Z,39.38
2022-12-18T17:09:54.228Z,38.47
2022-12-18T17:12:23.055Z,41.08
2022-12-18T17:14:51.269Z,41.50
2022-12-18T17:17:21.219Z,41.65
2022-12-18T17:19:51.134Z,40.70
2022-12-18T17:22:19.736Z,43.15
2022-12-18T17:24:47.822Z,41.03
2022-12-18T17:27:15.545Z,42.25
2022-12-18T17:29:48.095Z,43.20
2022-12-18T17:32:18.504Z,38.63
2022-12-18T17:34:46.856Z,42.45
2022-12-18T17:37:15.558Z,41.67
2022-12-18T17:39:43.526Z,40.90
2022-12-18T17:42:14.590Z,40.58
2022-12-18T17:44:44.887Z,39.65
2022-12-18T17:47:14.660Z,40.28
2022-12-18T17:49:43.065Z,41.55
2022-12-18T17:52:11.093Z,41.65
2022-12-18T17:54:41.936Z,42.45
2022-12-18T17:57:09.612Z,44.80
2022-12-18T17:59:37.599Z,42.75
2022-12-18T18:02:05.257Z,43.08
2022-12-18T18:04:33.294Z,43.20
2022-12-18T18:07:00.862Z,42.08
2022-12-18T18:09:29.118Z,42.03
2022-12-18T18:12:15.743Z,41.90
2022-12-18T18:14:44.113Z,42.15
2022-12-18T18:17:11.918Z,41.33
2022-12-18T18:19:40.045Z,41.78
2022-12-18T18:22:08.095Z,41.97
2022-12-18T18:24:35.966Z,40.03
2022-12-18T18:27:03.592Z,38.50
2022-12-18T18:29:32.075Z,41.08
2022-12-18T18:32:00.241Z,39.15
2022-12-18T18:34:32.016Z,41.28
2022-12-18T18:37:02.214Z,39.88
2022-12-18T18:39:30.357Z,43.38
2022-12-18T18:41:58.181Z,45.03
2022-12-18T18:44:26.573Z,46.28
2022-12-18T18:46:59.016Z,45.92
2022-12-18T18:49:28.377Z,42.83
2022-12-18T18:51:57.590Z,44.47
2022-12-18T18:59:42.501Z,43.08
2022-12-18T19:02:14.209Z,46.15
2022-12-18T19:04:45.829Z,46.75
2022-12-18T19:07:29.543Z,42.47
2022-12-18T19:10:04.680Z,44.60
2022-12-18T19:12:53.176Z,44.42
2022-12-18T19:15:22.977Z,43.88
2022-12-18T19:17:51.949Z,42.85
2022-12-18T19:20:20.064Z,44.45
2022-12-18T19:22:50.976Z,45.95
2022-12-18T19:25:38.381Z,44.85
2022-12-18T19:28:12.033Z,45.53
2022-12-18T19:30:58.785Z,45.58
2022-12-18T19:33:43.024Z,46.92
2022-12-18T19:36:26.195Z,46.97
2022-12-18T19:38:57.384Z,48.28
2022-12-18T19:41:29.112Z,48.17
2022-12-18T19:43:59.095Z,47.65
2022-12-18T19:46:27.120Z,46.67
2022-12-18T19:48:55.041Z,46.20
2022-12-18T19:51:27.210Z,47.03
2022-12-18T19:53:59.387Z,47.65
2022-12-18T19:56:33.356Z,47.55
2022-12-18T19:59:01.610Z,50.70
2022-12-18T20:01:30.995Z,47.67
2022-12-18T20:04:00.453Z,47.90
2022-12-18T20:06:32.660Z,45.90
2022-12-18T20:09:05.368Z,48.22
2022-12-18T20:11:41.816Z,45.53
2022-12-18T20:14:23.243Z,47.17
2022-12-18T20:16:52.650Z,49.85
2022-12-18T20:19:21.820Z,45.88
2022-12-18T20:21:49.824Z,46.95
2022-12-18T20:24:17.664Z,48.05
2022-12-18T20:26:45.850Z,47.38
2022-12-18T20:29:13.427Z,50.67
2022-12-18T20:31:41.450Z,45.70
2022-12-18T20:34:09.136Z,49.60
2022-12-18T20:36:37.747Z,47.45
2022-12-18T20:39:07.655Z,45.40
2022-12-18T20:41:39.250Z,49.28
2022-12-18T20:44:22.512Z,43.05
2022-12-18T20:46:57.865Z,41.83
2022-12-18T20:49:27.067Z,47.67
2022-12-18T20:54:41.791Z,44.33
2022-12-18T20:57:11.743Z,45.40
2022-12-18T20:59:43.331Z,44.53
2022-12-18T21:02:16.479Z,49.10
2022-12-18T21:04:49.980Z,48.28
2022-12-18T21:07:18.596Z,49.92
2022-12-18T21:09:46.132Z,52.28
2022-12-18T21:12:40.482Z,51.80
2022-12-18T21:15:17.561Z,47.97
2022-12-18T21:17:46.255Z,51.75
2022-12-18T21:20:17.550Z,50.25
2022-12-18T21:22:49.379Z,48.38
2022-12-18T21:25:24.146Z,49.85
2022-12-18T21:27:57.725Z,49.78
2022-12-18T21:30:39.065Z,50.72
2022-12-18T21:33:06.973Z,49.75
2022-12-18T21:35:34.536Z,54.35
2022-12-18T21:38:02.694Z,56.50
2022-12-18T21:40:39.766Z,59.70
2022-12-18T21:43:28.560Z,60.05
2022-12-18T21:45:56.261Z,56.83
2022-12-18T21:48:25.402Z,63.17
2022-12-18T21:50:52.975Z,60.83
2022-12-18T21:53:20.981Z,54.80
2022-12-18T21:55:58.933Z,58.35
2022-12-18T21:58:27.335Z,53.58
2022-12-18T22:00:55.518Z,53.60
2022-12-18T22:03:24.255Z,54.67
2022-12-18T22:06:03.500Z,53.97
2022-12-18T22:08:42.252Z,56.40
2022-12-18T22:11:14.466Z,50.92
2022-12-18T22:13:47.239Z,48.10
2022-12-18T22:16:27.961Z,50.10
2022-12-18T22:18:58.294Z,49.97
2022-12-18T22:21:36.301Z,51.83
2022-12-18T22:24:19.612Z,50.17
2022-12-18T22:26:48.339Z,51.75
2022-12-18T22:29:39.398Z,48.42
2022-12-18T22:32:10.727Z,47.22
2022-12-18T22:34:40.504Z,46.75
2022-12-18T22:37:12.984Z,46.53
2022-12-18T22:39:40.940Z,46.42
2022-12-18T22:42:08.880Z,46.05
2022-12-18T22:44:37.186Z,43.38
2022-12-18T22:47:06.904Z,45.47
2022-12-18T22:49:36.682Z,42.63
2022-12-18T22:52:06.317Z,43.35
2022-12-18T22:54:34.507Z,42.92
2022-12-18T22:57:02.157Z,42.15
2022-12-18T22:59:31.067Z,41.95
2022-12-18T23:01:59.587Z,41.90
2022-12-18T23:04:30.613Z,40.40
2022-12-18T23:07:05.987Z,42.33
2022-12-18T23:09:34.561Z,42.83
2022-12-18T23:12:02.868Z,43.38
2022-12-18T23:14:31.969Z,44.30
2022-12-18T23:16:59.672Z,41.70
2022-12-18T23:19:27.869Z,39.83
2022-12-18T23:21:58.272Z,43.20
2022-12-18T23:24:26.619Z,39.95
2022-12-18T23:26:54.307Z,37.72
2022-12-18T23:29:22.325Z,41.05
2022-12-18T23:31:49.977Z,41.38
2022-12-18T23:34:18.084Z,41.25
2022-12-18T23:36:46.959Z,42.85
2022-12-18T23:39:28.608Z,42.80
2022-12-18T23:42:01.604Z,45.33
2022-12-18T23:44:30.541Z,44.47
2022-12-18T23:46:58.192Z,43.03
2022-12-18T23:49:26.246Z,40.63
2022-12-18T23:51:55.266Z,42.75
2022-12-18T23:54:32.717Z,42.90
2022-12-18T23:57:01.666Z,41.65
2022-12-18T23:59:29.794Z,41.65
